Time;durP1;ratioP1;P1;durP2;ratioP2;P2;SDS_P1;SDS_P2;PMS_P1;PMS_P2;Temp;Humidity;BMP_temperature;BMP_pressure;BME280_temperature;BME280_humidity;BME280_pressure;Samples;Min_cycle;Max_cycle;Signal;HPM_P1;HPM_P2
2021/07/19 00:00:13;;;;;;;7.85;3.53;;;;;;;;;;5090072;28;20244;-67
2021/07/19 00:02:39;;;;;;;5.30;3.50;;;;;;;;;;5087868;28;20020;-65
2021/07/19 00:05:05;;;;;;;4.05;3.40;;;;;;;;;;5089196;28;20027;-66
2021/07/19 00:07:30;;;;;;;7.03;4.03;;;;;;;;;;5093172;28;20466;-66
2021/07/19 00:09:55;;;;;;;6.35;3.70;;;;;;;;;;5092905;28;20016;-66
2021/07/19 00:12:20;;;;;;;4.72;3.92;;;;;;;;;;5089924;28;20030;-67
2021/07/19 00:14:46;;;;;;;4.13;3.38;;;;;;;;;;5090388;28;20078;-66
2021/07/19 00:17:13;;;;;;;6.53;3.50;;;;;;;;;;5091542;28;20375;-67
2021/07/19 00:19:38;;;;;;;3.85;3.45;;;;;;;;;;5089082;28;20031;-67
2021/07/19 00:22:04;;;;;;;5.07;3.05;;;;;;;;;;5092091;28;20016;-67
2021/07/19 00:24:29;;;;;;;5.85;3.40;;;;;;;;;;5090951;28;20047;-67
2021/07/19 00:26:54;;;;;;;5.90;2.83;;;;;;;;;;5090827;28;20024;-67
2021/07/19 00:29:19;;;;;;;3.83;3.30;;;;;;;;;;5093255;28;20051;-67
2021/07/19 00:31:45;;;;;;;6.13;3.55;;;;;;;;;;5092756;28;20099;-68
2021/07/19 00:34:10;;;;;;;5.88;3.33;;;;;;;;;;5089692;28;20020;-67
2021/07/19 00:36:35;;;;;;;5.32;3.40;;;;;;;;;;5091475;28;20028;-67
2021/07/19 00:39:04;;;;;;;3.97;3.20;;;;;;;;;;5091362;28;20131;-66
2021/07/19 00:41:29;;;;;;;5.60;3.40;;;;;;;;;;5091354;28;20027;-66
2021/07/19 00:43:54;;;;;;;5.50;3.63;;;;;;;;;;5088191;28;20103;-66
2021/07/19 00:46:19;;;;;;;5.40;3.72;;;;;;;;;;5093147;28;20098;-67
2021/07/19 00:48:45;;;;;;;4.85;3.50;;;;;;;;;;5092638;28;20020;-67
2021/07/19 00:51:11;;;;;;;3.53;3.20;;;;;;;;;;5088717;28;20396;-66
2021/07/19 00:53:36;;;;;;;5.28;3.22;;;;;;;;;;5090220;28;20044;-67
2021/07/19 00:56:02;;;;;;;4.82;3.35;;;;;;;;;;5090810;28;20019;-67
2021/07/19 00:58:29;;;;;;;5.30;3.50;;;;;;;;;;5090837;28;20028;-68
2021/07/19 01:00:55;;;;;;;4.13;3.42;;;;;;;;;;5090604;28;20035;-67
2021/07/19 01:03:22;;;;;;;4.80;3.10;;;;;;;;;;5089499;28;20200;-67
2021/07/19 01:05:48;;;;;;;4.57;3.30;;;;;;;;;;5085954;28;20024;-67
2021/07/19 01:08:13;;;;;;;7.28;3.63;;;;;;;;;;5080939;28;20245;-66
2021/07/19 01:10:38;;;;;;;5.80;3.75;;;;;;;;;;5091553;28;20493;-67
2021/07/19 01:13:05;;;;;;;4.00;3.40;;;;;;;;;;5089829;28;20032;-66
2021/07/19 01:15:31;;;;;;;4.95;3.53;;;;;;;;;;5091402;28;20069;-65
2021/07/19 01:17:57;;;;;;;6.75;3.40;;;;;;;;;;5085171;28;20104;-67
2021/07/19 01:20:26;;;;;;;5.25;3.40;;;;;;;;;;5092400;28;20103;-67
2021/07/19 01:23:11;;;;;;;5.07;3.05;;;;;;;;;;5091770;28;20153;-67
2021/07/19 01:25:45;;;;;;;5.43;3.58;;;;;;;;;;5073704;28;20065;-67
2021/07/19 01:28:29;;;;;;;7.10;3.15;;;;;;;;;;5090948;28;20028;-68
2021/07/19 01:30:55;;;;;;;7.07;3.72;;;;;;;;;;5089976;28;20031;-67
2021/07/19 01:33:21;;;;;;;3.40;2.95;;;;;;;;;;5088224;28;20032;-68
2021/07/19 01:35:47;;;;;;;3.92;3.00;;;;;;;;;;5091630;28;20070;-68
2021/07/19 01:38:14;;;;;;;4.57;3.42;;;;;;;;;;5090695;28;20062;-68
2021/07/19 01:40:39;;;;;;;4.10;3.35;;;;;;;;;;5090611;28;20023;-68
2021/07/19 01:43:06;;;;;;;6.13;3.42;;;;;;;;;;5089201;28;20020;-68
2021/07/19 01:45:32;;;;;;;5.90;3.28;;;;;;;;;;5089642;28;20031;-67
2021/07/19 01:47:57;;;;;;;5.20;3.63;;;;;;;;;;5090334;28;20023;-67
2021/07/19 01:50:22;;;;;;;6.10;3.70;;;;;;;;;;5092009;28;20489;-67
2021/07/19 01:52:49;;;;;;;6.15;3.28;;;;;;;;;;5080985;28;20043;-67
2021/07/19 01:55:14;;;;;;;5.28;3.60;;;;;;;;;;5088062;28;20479;-68
2021/07/19 01:57:40;;;;;;;6.38;3.70;;;;;;;;;;5092160;28;20055;-68
2021/07/19 02:00:06;;;;;;;4.47;3.63;;;;;;;;;;5087361;28;20020;-67
2021/07/19 02:02:33;;;;;;;8.63;3.72;;;;;;;;;;5090007;28;20036;-68
2021/07/19 02:04:58;;;;;;;6.50;3.30;;;;;;;;;;5088436;28;20510;-67
2021/07/19 02:07:24;;;;;;;5.25;3.63;;;;;;;;;;5091398;28;20115;-68
2021/07/19 02:09:51;;;;;;;4.63;3.10;;;;;;;;;;5089861;28;20360;-68
2021/07/19 02:12:16;;;;;;;6.15;3.25;;;;;;;;;;5095190;28;20032;-68
2021/07/19 02:14:42;;;;;;;4.03;3.00;;;;;;;;;;5091521;28;20058;-67
2021/07/19 02:17:09;;;;;;;4.53;3.13;;;;;;;;;;5096226;28;20499;-67
2021/07/19 02:19:36;;;;;;;4.55;2.42;;;;;;;;;;5095165;28;20111;-67
2021/07/19 02:22:02;;;;;;;7.53;3.35;;;;;;;;;;5094927;28;20099;-66
2021/07/19 02:24:27;;;;;;;3.90;2.30;;;;;;;;;;5092962;28;20112;-67
2021/07/19 02:26:54;;;;;;;2.65;1.95;;;;;;;;;;5093622;28;20548;-67
2021/07/19 02:29:19;;;;;;;3.30;2.10;;;;;;;;;;5081906;28;20063;-67
2021/07/19 02:31:45;;;;;;;5.28;1.92;;;;;;;;;;5094143;28;20052;-67
2021/07/19 02:34:11;;;;;;;3.92;2.15;;;;;;;;;;5092551;28;20012;-67
2021/07/19 02:36:36;;;;;;;2.83;1.73;;;;;;;;;;5094080;28;20028;-68
2021/07/19 02:39:03;;;;;;;3.35;1.75;;;;;;;;;;5092438;28;20024;-67
2021/07/19 02:41:28;;;;;;;3.88;1.83;;;;;;;;;;5090912;28;20025;-68
2021/07/19 02:43:55;;;;;;;5.47;1.80;;;;;;;;;;5087679;28;20020;-66
2021/07/19 02:46:23;;;;;;;3.20;1.70;;;;;;;;;;5092178;28;20031;-68
2021/07/19 02:48:58;;;;;;;2.88;1.42;;;;;;;;;;5090230;28;20082;-68
2021/07/19 02:51:25;;;;;;;3.55;1.83;;;;;;;;;;5094738;28;20043;-68
2021/07/19 02:53:51;;;;;;;5.53;1.60;;;;;;;;;;5091033;28;20052;-68
2021/07/19 02:56:16;;;;;;;2.95;1.63;;;;;;;;;;5094394;28;20025;-67
2021/07/19 02:58:41;;;;;;;4.68;2.17;;;;;;;;;;5095101;28;20426;-68
2021/07/19 03:01:08;;;;;;;3.42;1.60;;;;;;;;;;5091574;28;20024;-67
2021/07/19 03:03:35;;;;;;;6.50;1.60;;;;;;;;;;5090582;28;20110;-65
2021/07/19 03:06:20;;;;;;;1.83;1.33;;;;;;;;;;5077722;28;20035;-65
2021/07/19 03:08:46;;;;;;;3.08;1.88;;;;;;;;;;5091595;28;20099;-66
2021/07/19 03:11:16;;;;;;;3.70;1.63;;;;;;;;;;5093255;28;20028;-66
2021/07/19 03:13:43;;;;;;;1.80;1.50;;;;;;;;;;5092296;28;20024;-66
2021/07/19 03:16:08;;;;;;;3.88;1.58;;;;;;;;;;5095149;28;20017;-67
2021/07/19 03:18:38;;;;;;;6.30;1.90;;;;;;;;;;5094098;28;20117;-68
2021/07/19 03:21:04;;;;;;;3.80;1.92;;;;;;;;;;5094733;28;20077;-68
2021/07/19 03:23:31;;;;;;;2.83;1.63;;;;;;;;;;5090734;28;20030;-68
2021/07/19 03:25:58;;;;;;;4.82;2.03;;;;;;;;;;5095215;28;20023;-66
2021/07/19 03:28:24;;;;;;;3.10;2.45;;;;;;;;;;5092599;28;20531;-66
2021/07/19 03:30:50;;;;;;;4.38;2.17;;;;;;;;;;5094059;28;20107;-67
2021/07/19 03:33:15;;;;;;;4.32;2.35;;;;;;;;;;5092259;28;20024;-67
2021/07/19 03:35:41;;;;;;;5.18;2.53;;;;;;;;;;5093825;28;20463;-67
2021/07/19 03:38:07;;;;;;;5.28;2.83;;;;;;;;;;5091728;28;20101;-67
2021/07/19 03:40:33;;;;;;;4.22;2.75;;;;;;;;;;5093575;28;20024;-68
2021/07/19 03:43:00;;;;;;;6.32;2.83;;;;;;;;;;5084812;28;20360;-66
2021/07/19 03:45:26;;;;;;;7.85;2.47;;;;;;;;;;5093272;28;20085;-67
2021/07/19 03:47:52;;;;;;;3.42;2.63;;;;;;;;;;5093589;28;20111;-66
2021/07/19 03:50:17;;;;;;;6.43;3.42;;;;;;;;;;5093486;28;20536;-67
2021/07/19 03:52:43;;;;;;;3.92;2.55;;;;;;;;;;5090755;28;20040;-67
2021/07/19 03:55:10;;;;;;;4.68;2.70;;;;;;;;;;5092464;28;20082;-68
2021/07/19 03:57:36;;;;;;;4.72;2.60;;;;;;;;;;5091067;28;20043;-68
2021/07/19 04:00:04;;;;;;;4.63;3.00;;;;;;;;;;5093416;28;20453;-68
2021/07/19 04:02:30;;;;;;;4.72;2.65;;;;;;;;;;5094293;28;20044;-67
2021/07/19 04:05:06;;;;;;;3.20;3.00;;;;;;;;;;5090259;28;20085;-67
2021/07/19 04:07:35;;;;;;;4.65;2.58;;;;;;;;;;5090562;28;20016;-66
2021/07/19 04:10:01;;;;;;;5.07;2.58;;;;;;;;;;5095489;28;20020;-67
2021/07/19 04:12:26;;;;;;;2.85;2.55;;;;;;;;;;5092512;28;20035;-65
2021/07/19 04:14:51;;;;;;;4.70;2.75;;;;;;;;;;5092145;28;20020;-67
2021/07/19 04:17:17;;;;;;;5.03;2.65;;;;;;;;;;5092486;28;20106;-67
2021/07/19 04:19:44;;;;;;;5.85;2.72;;;;;;;;;;5093025;28;20024;-67
2021/07/19 04:22:10;;;;;;;5.43;3.10;;;;;;;;;;5092549;28;20016;-66
2021/07/19 04:24:36;;;;;;;4.18;3.20;;;;;;;;;;5088927;28;20072;-68
2021/07/19 04:27:01;;;;;;;3.50;2.35;;;;;;;;;;5090072;28;20099;-67
2021/07/19 04:29:26;;;;;;;4.60;3.03;;;;;;;;;;5092133;28;20020;-67
2021/07/19 04:31:53;;;;;;;7.60;3.83;;;;;;;;;;5093972;28;20024;-68
2021/07/19 04:34:31;;;;;;;4.32;3.15;;;;;;;;;;5087526;28;20016;-66
2021/07/19 04:36:58;;;;;;;5.07;3.13;;;;;;;;;;5093136;28;20065;-67
2021/07/19 04:39:23;;;;;;;4.95;3.22;;;;;;;;;;5091934;28;20016;-68
2021/07/19 04:41:48;;;;;;;4.88;3.05;;;;;;;;;;5090474;28;20023;-67
2021/07/19 04:44:13;;;;;;;4.78;3.20;;;;;;;;;;5090310;28;20051;-67
2021/07/19 04:46:38;;;;;;;5.53;3.75;;;;;;;;;;5092363;28;20016;-67
2021/07/19 04:49:05;;;;;;;4.93;3.75;;;;;;;;;;5091001;28;20030;-66
2021/07/19 04:51:30;;;;;;;6.22;4.28;;;;;;;;;;5086964;28;20054;-67
2021/07/19 04:53:56;;;;;;;6.10;3.97;;;;;;;;;;5086571;28;20068;-66
2021/07/19 04:56:22;;;;;;;6.68;4.00;;;;;;;;;;5085971;28;20025;-66
2021/07/19 04:58:50;;;;;;;7.68;3.45;;;;;;;;;;5082833;28;20147;-67
2021/07/19 05:01:16;;;;;;;3.88;3.30;;;;;;;;;;5083511;28;20020;-68
2021/07/19 05:03:43;;;;;;;6.15;3.88;;;;;;;;;;5077846;28;20111;-67
2021/07/19 05:06:10;;;;;;;4.75;3.92;;;;;;;;;;5091707;28;20098;-67
2021/07/19 05:08:36;;;;;;;7.65;4.22;;;;;;;;;;5090278;28;20028;-66
2021/07/19 05:11:02;;;;;;;6.30;4.05;;;;;;;;;;5091220;28;20020;-67
2021/07/19 05:13:27;;;;;;;4.93;4.45;;;;;;;;;;5090505;28;20089;-67
2021/07/19 05:15:53;;;;;;;6.82;3.85;;;;;;;;;;5091808;28;20013;-67
2021/07/19 05:18:18;;;;;;;5.50;4.68;;;;;;;;;;5089767;28;20030;-69
2021/07/19 05:20:44;;;;;;;5.13;4.10;;;;;;;;;;5091872;28;20036;-69
2021/07/19 05:23:10;;;;;;;6.07;4.10;;;;;;;;;;5089482;28;20027;-66
2021/07/19 05:25:35;;;;;;;6.78;4.53;;;;;;;;;;5090566;28;20031;-69
2021/07/19 05:28:11;;;;;;;6.15;4.00;;;;;;;;;;5090850;28;20024;-69
2021/07/19 05:30:43;;;;;;;6.75;4.20;;;;;;;;;;5089514;28;20062;-69
2021/07/19 05:33:09;;;;;;;6.57;4.45;;;;;;;;;;5090579;28;20490;-71
2021/07/19 05:35:35;;;;;;;5.75;4.45;;;;;;;;;;5090986;28;20047;-70
2021/07/19 05:38:00;;;;;;;5.53;4.40;;;;;;;;;;5087902;28;21444;-67
2021/07/19 05:40:26;;;;;;;4.85;4.30;;;;;;;;;;5079225;28;20029;-68
2021/07/19 05:42:51;;;;;;;6.40;4.90;;;;;;;;;;5079771;28;20024;-68
2021/07/19 05:45:16;;;;;;;5.50;4.22;;;;;;;;;;5081476;28;20508;-67
2021/07/19 05:47:42;;;;;;;5.47;4.30;;;;;;;;;;5091380;28;20024;-66
2021/07/19 05:50:08;;;;;;;6.28;4.68;;;;;;;;;;5091842;28;20128;-67
2021/07/19 05:52:33;;;;;;;9.07;4.85;;;;;;;;;;5091426;28;20096;-67
2021/07/19 05:54:59;;;;;;;7.45;4.75;;;;;;;;;;5089737;28;20035;-66
2021/07/19 05:57:28;;;;;;;5.38;4.43;;;;;;;;;;5091254;28;20027;-67
2021/07/19 05:59:56;;;;;;;6.03;4.85;;;;;;;;;;5091587;28;20501;-67
2021/07/19 06:02:21;;;;;;;8.73;5.00;;;;;;;;;;5092045;28;20019;-67
2021/07/19 06:04:46;;;;;;;9.23;5.35;;;;;;;;;;5088479;28;20023;-67
2021/07/19 06:07:11;;;;;;;7.57;4.88;;;;;;;;;;5086901;28;20074;-66
2021/07/19 06:09:37;;;;;;;6.85;5.35;;;;;;;;;;5081817;28;20059;-67
2021/07/19 06:12:02;;;;;;;8.80;5.90;;;;;;;;;;5071704;28;20071;-68
2021/07/19 06:14:27;;;;;;;7.28;5.55;;;;;;;;;;5074088;28;20021;-66
2021/07/19 06:16:52;;;;;;;7.57;5.53;;;;;;;;;;5084684;28;20016;-66
2021/07/19 06:19:18;;;;;;;7.35;5.45;;;;;;;;;;5081046;28;20023;-64
2021/07/19 06:21:43;;;;;;;7.80;6.13;;;;;;;;;;5091016;28;20070;-65
2021/07/19 06:24:08;;;;;;;9.40;6.00;;;;;;;;;;5081945;28;20382;-65
2021/07/19 06:26:33;;;;;;;7.68;4.60;;;;;;;;;;5092113;28;20475;-66
2021/07/19 06:28:59;;;;;;;8.90;5.50;;;;;;;;;;5091539;28;20016;-67
2021/07/19 06:31:24;;;;;;;10.95;6.15;;;;;;;;;;5091726;28;20411;-65
2021/07/19 06:33:49;;;;;;;9.25;5.97;;;;;;;;;;5088801;28;20044;-66
2021/07/19 06:36:14;;;;;;;9.80;5.75;;;;;;;;;;5087659;28;20103;-66
2021/07/19 06:38:39;;;;;;;7.18;5.80;;;;;;;;;;5090624;28;20129;-66
2021/07/19 06:41:05;;;;;;;8.13;5.45;;;;;;;;;;5090980;28;20031;-66
2021/07/19 06:43:30;;;;;;;9.93;4.35;;;;;;;;;;5088086;28;20028;-67
2021/07/19 06:45:55;;;;;;;8.05;5.28;;;;;;;;;;5091797;28;20024;-66
2021/07/19 06:48:21;;;;;;;7.78;5.45;;;;;;;;;;5091306;28;20031;-67
2021/07/19 06:50:46;;;;;;;10.38;5.20;;;;;;;;;;5090933;28;20026;-66
2021/07/19 06:53:11;;;;;;;9.45;5.30;;;;;;;;;;5071446;28;20051;-66
2021/07/19 06:55:36;;;;;;;9.25;4.97;;;;;;;;;;5090164;28;20047;-66
2021/07/19 06:58:02;;;;;;;7.22;4.43;;;;;;;;;;5097023;28;20470;-66
2021/07/19 07:00:27;;;;;;;10.07;5.13;;;;;;;;;;5095081;28;20465;-66
2021/07/19 07:02:52;;;;;;;12.43;4.65;;;;;;;;;;5095105;28;20056;-66
2021/07/19 07:05:17;;;;;;;6.38;3.05;;;;;;;;;;5091529;28;20095;-65
2021/07/19 07:07:44;;;;;;;4.85;2.65;;;;;;;;;;5095111;28;20024;-65
2021/07/19 07:10:09;;;;;;;7.95;4.25;;;;;;;;;;5085323;28;20472;-65
2021/07/19 07:12:35;;;;;;;8.30;4.53;;;;;;;;;;5076105;28;20111;-65
2021/07/19 07:15:01;;;;;;;8.15;4.45;;;;;;;;;;5087323;28;20375;-66
2021/07/19 07:17:26;;;;;;;10.05;3.83;;;;;;;;;;5094597;28;20074;-66
2021/07/19 07:19:53;;;;;;;12.80;4.60;;;;;;;;;;5096948;28;20023;-64
2021/07/19 07:22:18;;;;;;;9.02;3.90;;;;;;;;;;5093997;28;20022;-66
2021/07/19 07:24:43;;;;;;;10.15;2.92;;;;;;;;;;5091002;28;20108;-66
2021/07/19 07:27:09;;;;;;;10.80;4.68;;;;;;;;;;5096421;28;20020;-66
2021/07/19 07:29:34;;;;;;;10.00;4.72;;;;;;;;;;5091109;28;20047;-65
2021/07/19 07:32:00;;;;;;;12.07;6.32;;;;;;;;;;5093303;28;20190;-66
2021/07/19 07:34:25;;;;;;;10.18;7.15;;;;;;;;;;5089396;28;20399;-65
2021/07/19 07:36:50;;;;;;;9.63;5.88;;;;;;;;;;5091147;28;20373;-65
2021/07/19 07:39:15;;;;;;;10.68;6.05;;;;;;;;;;5086442;28;20028;-65
2021/07/19 07:41:41;;;;;;;10.60;7.05;;;;;;;;;;5086080;28;20026;-64
2021/07/19 07:44:06;;;;;;;12.93;6.35;;;;;;;;;;5091098;28;20020;-65
2021/07/19 07:46:31;;;;;;;11.85;6.20;;;;;;;;;;5091647;28;20475;-65
2021/07/19 07:48:57;;;;;;;11.95;5.82;;;;;;;;;;5091971;28;20047;-65
2021/07/19 07:51:22;;;;;;;9.20;5.38;;;;;;;;;;5092891;28;20085;-65
2021/07/19 07:53:47;;;;;;;11.32;5.72;;;;;;;;;;5085508;28;20120;-65
2021/07/19 07:56:13;;;;;;;10.32;5.00;;;;;;;;;;5073936;28;20055;-65
2021/07/19 07:58:38;;;;;;;10.43;5.22;;;;;;;;;;5089509;28;20031;-65
2021/07/19 08:01:03;;;;;;;7.43;4.93;;;;;;;;;;5092439;28;20111;-65
2021/07/19 08:03:29;;;;;;;8.43;4.53;;;;;;;;;;5090086;28;20529;-65
2021/07/19 08:05:54;;;;;;;11.85;5.03;;;;;;;;;;5092888;28;20028;-65
2021/07/19 08:08:19;;;;;;;9.05;4.50;;;;;;;;;;5085868;28;20039;-65
2021/07/19 08:10:45;;;;;;;11.45;5.18;;;;;;;;;;5073496;28;20016;-65
2021/07/19 08:13:10;;;;;;;8.40;4.28;;;;;;;;;;5071297;28;20062;-65
2021/07/19 08:15:36;;;;;;;9.63;4.57;;;;;;;;;;5075125;28;20038;-65
2021/07/19 08:18:02;;;;;;;8.20;4.30;;;;;;;;;;5093520;28;20089;-64
2021/07/19 08:20:27;;;;;;;15.25;5.82;;;;;;;;;;5086738;28;20466;-66
2021/07/19 08:22:53;;;;;;;6.88;3.92;;;;;;;;;;5077861;28;20092;-66
2021/07/19 08:25:18;;;;;;;10.82;4.32;;;;;;;;;;5076378;28;20097;-66
2021/07/19 08:27:44;;;;;;;7.00;4.00;;;;;;;;;;5093053;28;20036;-66
2021/07/19 08:30:10;;;;;;;9.55;4.53;;;;;;;;;;5078056;28;20028;-65
2021/07/19 08:32:35;;;;;;;9.27;3.97;;;;;;;;;;5073374;28;20074;-66
2021/07/19 08:35:00;;;;;;;10.75;4.05;;;;;;;;;;5088770;28;20028;-66
2021/07/19 08:37:27;;;;;;;9.30;3.58;;;;;;;;;;5093180;28;20020;-67
2021/07/19 08:39:53;;;;;;;8.63;3.35;;;;;;;;;;5092092;28;20415;-66
2021/07/19 08:42:18;;;;;;;8.13;3.83;;;;;;;;;;5092265;28;20066;-65
2021/07/19 08:44:43;;;;;;;9.10;3.08;;;;;;;;;;5090195;28;20027;-66
2021/07/19 08:47:10;;;;;;;8.07;3.55;;;;;;;;;;5093326;28;20026;-66
2021/07/19 08:49:35;;;;;;;8.70;3.72;;;;;;;;;;5091908;28;20439;-65
2021/07/19 08:52:01;;;;;;;9.93;3.78;;;;;;;;;;5084733;28;20058;-66
2021/07/19 08:54:27;;;;;;;7.97;3.83;;;;;;;;;;5085158;28;20031;-65
2021/07/19 08:56:53;;;;;;;6.50;3.75;;;;;;;;;;5090555;28;20048;-66
2021/07/19 08:59:19;;;;;;;7.78;3.50;;;;;;;;;;5088601;28;20094;-66
2021/07/19 09:01:45;;;;;;;8.30;4.10;;;;;;;;;;5080039;28;20425;-66
2021/07/19 09:04:15;;;;;;;9.10;3.70;;;;;;;;;;5078755;28;20016;-66
2021/07/19 09:06:41;;;;;;;12.00;3.63;;;;;;;;;;5091953;28;20085;-65
2021/07/19 09:09:06;;;;;;;8.88;3.65;;;;;;;;;;5092625;28;20398;-65
2021/07/19 09:11:31;;;;;;;9.63;4.43;;;;;;;;;;5089596;28;20028;-64
2021/07/19 09:13:58;;;;;;;9.20;5.10;;;;;;;;;;5088587;28;20031;-64
2021/07/19 09:16:23;;;;;;;7.75;4.53;;;;;;;;;;5089188;28;20020;-64
2021/07/19 09:19:02;;;;;;;10.65;5.82;;;;;;;;;;5093110;28;20068;-65
2021/07/19 09:21:31;;;;;;;8.18;4.90;;;;;;;;;;5091822;28;20103;-66
2021/07/19 09:24:06;;;;;;;10.60;5.22;;;;;;;;;;5089547;28;20050;-65
2021/07/19 09:26:31;;;;;;;;;;;;;;;;;;5091126;28;20032;-65
2021/07/19 09:28:57;;;;;;;12.60;5.40;;;;;;;;;;5092212;28;19969;-65
2021/07/19 09:31:30;;;;;;;12.38;6.50;;;;;;;;;;5090848;28;20024;-65
2021/07/19 09:33:55;;;;;;;10.95;6.50;;;;;;;;;;5084596;28;20016;-65
2021/07/19 09:36:22;;;;;;;8.48;6.85;;;;;;;;;;5090603;28;20564;-66
2021/07/19 09:39:02;;;;;;;10.73;6.78;;;;;;;;;;5091610;28;20024;-66
2021/07/19 09:41:27;;;;;;;10.50;6.53;;;;;;;;;;5092324;28;20018;-65
2021/07/19 09:43:52;;;;;;;9.55;6.57;;;;;;;;;;5089984;28;20580;-65
2021/07/19 09:46:17;;;;;;;9.52;6.88;;;;;;;;;;5091171;28;20034;-65
2021/07/19 09:48:43;;;;;;;8.90;7.10;;;;;;;;;;5092020;28;20020;-66
2021/07/19 09:51:08;;;;;;;11.02;7.07;;;;;;;;;;5092112;28;20020;-67
2021/07/19 09:53:39;;;;;;;10.07;6.22;;;;;;;;;;5088746;28;20115;-66
2021/07/19 09:56:07;;;;;;;8.95;6.40;;;;;;;;;;5091094;28;20051;-66
2021/07/19 09:58:32;;;;;;;9.00;5.63;;;;;;;;;;5091736;28;20193;-66
2021/07/19 10:00:57;;;;;;;10.65;5.28;;;;;;;;;;5091228;28;20098;-66
2021/07/19 10:03:25;;;;;;;9.07;5.95;;;;;;;;;;5089974;28;20112;-66
2021/07/19 10:05:50;;;;;;;7.65;4.72;;;;;;;;;;5092087;28;20056;-62
2021/07/19 10:08:19;;;;;;;7.75;5.38;;;;;;;;;;5091660;28;20542;-62
2021/07/19 10:10:45;;;;;;;10.80;5.40;;;;;;;;;;5092040;28;20020;-62
2021/07/19 10:13:10;;;;;;;10.68;5.95;;;;;;;;;;5089995;28;20015;-62
2021/07/19 10:15:37;;;;;;;9.43;5.68;;;;;;;;;;5090516;28;20070;-63
2021/07/19 10:18:09;;;;;;;12.15;5.15;;;;;;;;;;5091570;28;20026;-60
2021/07/19 10:20:35;;;;;;;10.10;6.53;;;;;;;;;;5090009;28;20091;-62
2021/07/19 10:23:01;;;;;;;9.25;6.32;;;;;;;;;;5090976;28;20115;-62
2021/07/19 10:25:26;;;;;;;11.25;6.85;;;;;;;;;;5090491;28;20024;-62
2021/07/19 10:27:52;;;;;;;11.35;6.38;;;;;;;;;;5090640;28;20054;-62
2021/07/19 10:30:17;;;;;;;10.93;7.07;;;;;;;;;;5090688;28;20065;-62
2021/07/19 10:32:43;;;;;;;8.82;5.95;;;;;;;;;;5092776;28;20016;-62
2021/07/19 10:35:09;;;;;;;9.77;6.13;;;;;;;;;;5092961;28;20108;-63
2021/07/19 10:37:36;;;;;;;11.02;6.28;;;;;;;;;;5095026;28;20466;-63
2021/07/19 10:40:03;;;;;;;11.63;6.20;;;;;;;;;;5094629;28;20517;-62
2021/07/19 10:42:32;;;;;;;7.22;6.15;;;;;;;;;;5100532;28;20024;-63
2021/07/19 10:45:05;;;;;;;8.38;5.53;;;;;;;;;;5092082;28;20031;-63
2021/07/19 10:47:30;;;;;;;9.07;5.43;;;;;;;;;;5095491;28;20027;-63
2021/07/19 10:49:57;;;;;;;8.52;5.25;;;;;;;;;;5094366;28;20031;-62
2021/07/19 10:52:29;;;;;;;8.25;5.45;;;;;;;;;;5095207;28;20409;-63
2021/07/19 10:54:55;;;;;;;7.70;5.70;;;;;;;;;;5092178;28;20137;-63
2021/07/19 10:57:32;;;;;;;10.02;5.55;;;;;;;;;;5095620;28;20073;-63
2021/07/19 11:00:04;;;;;;;11.65;5.63;;;;;;;;;;5093421;28;20028;-63
2021/07/19 11:02:29;;;;;;;11.70;5.60;;;;;;;;;;5094328;28;20054;-63
2021/07/19 11:04:55;;;;;;;9.00;5.20;;;;;;;;;;5091500;28;20059;-62
2021/07/19 11:07:22;;;;;;;9.43;4.93;;;;;;;;;;5095425;28;20015;-63
2021/07/19 11:09:47;;;;;;;9.00;5.55;;;;;;;;;;5095101;28;20024;-62
2021/07/19 11:12:16;;;;;;;7.95;5.30;;;;;;;;;;5094904;28;20026;-63
2021/07/19 11:14:46;;;;;;;7.38;5.60;;;;;;;;;;5091582;28;20065;-63
2021/07/19 11:17:11;;;;;;;7.70;4.70;;;;;;;;;;5095306;28;20410;-63
2021/07/19 11:19:39;;;;;;;9.57;5.22;;;;;;;;;;5095037;28;20467;-63
2021/07/19 11:22:12;;;;;;;7.85;5.20;;;;;;;;;;5094978;28;20020;-63
2021/07/19 11:24:38;;;;;;;7.50;5.47;;;;;;;;;;5091617;28;20047;-63
2021/07/19 11:27:04;;;;;;;7.32;4.63;;;;;;;;;;5094235;28;20115;-64
2021/07/19 11:29:30;;;;;;;7.70;6.05;;;;;;;;;;5093974;28;20112;-63
2021/07/19 11:32:18;;;;;;;9.85;6.13;;;;;;;;;;5094155;28;20024;-63
2021/07/19 11:34:43;;;;;;;7.15;5.13;;;;;;;;;;5090034;28;20016;-63
2021/07/19 11:37:09;;;;;;;7.18;5.18;;;;;;;;;;5094578;28;20023;-63
2021/07/19 11:39:44;;;;;;;6.60;4.88;;;;;;;;;;5106923;28;20015;-63
2021/07/19 11:42:12;;;;;;;6.50;4.72;;;;;;;;;;5103357;28;20027;-60
2021/07/19 11:44:37;;;;;;;9.13;5.60;;;;;;;;;;5090243;28;20036;-62
2021/07/19 11:47:04;;;;;;;7.28;5.10;;;;;;;;;;5094326;28;20133;-62
2021/07/19 11:49:29;;;;;;;7.22;5.00;;;;;;;;;;5095268;28;20020;-64
2021/07/19 11:51:55;;;;;;;6.70;4.57;;;;;;;;;;5095305;28;20016;-62
2021/07/19 11:54:20;;;;;;;6.05;4.05;;;;;;;;;;5108513;28;20173;-63
2021/07/19 11:56:53;;;;;;;5.17;3.90;;;;;;;;;;5101695;28;20148;-63
2021/07/19 11:59:21;;;;;;;7.38;4.90;;;;;;;;;;5104899;28;20324;-64
2021/07/19 12:01:53;;;;;;;7.90;4.07;;;;;;;;;;5093712;28;20054;-63
2021/07/19 12:04:19;;;;;;;6.40;4.45;;;;;;;;;;5091028;28;20020;-62
2021/07/19 12:06:49;;;;;;;5.43;4.00;;;;;;;;;;5089426;28;20024;-62
2021/07/19 12:09:14;;;;;;;5.28;3.70;;;;;;;;;;5080243;28;20056;-63
2021/07/19 12:11:40;;;;;;;6.05;4.18;;;;;;;;;;5094057;28;20051;-63
2021/07/19 12:14:09;;;;;;;5.50;4.10;;;;;;;;;;5089109;28;20020;-63
2021/07/19 12:16:35;;;;;;;5.72;4.10;;;;;;;;;;5085674;28;20093;-62
2021/07/19 12:19:00;;;;;;;6.50;4.05;;;;;;;;;;5096435;28;20110;-62
2021/07/19 12:21:29;;;;;;;8.50;4.68;;;;;;;;;;5099459;28;20098;-62
2021/07/19 12:23:56;;;;;;;5.00;4.05;;;;;;;;;;5099569;28;20023;-62
2021/07/19 12:26:30;;;;;;;5.57;4.13;;;;;;;;;;5090317;28;20020;-62
2021/07/19 12:28:56;;;;;;;6.25;4.43;;;;;;;;;;5090442;28;20035;-62
2021/07/19 12:31:30;;;;;;;7.33;4.83;;;;;;;;;;5092649;28;20032;-63
2021/07/19 12:33:58;;;;;;;8.73;4.35;;;;;;;;;;5090166;28;20051;-62
2021/07/19 12:36:23;;;;;;;5.90;4.50;;;;;;;;;;5093622;28;20027;-63
2021/07/19 12:38:48;;;;;;;5.90;3.92;;;;;;;;;;5093372;28;20028;-62
2021/07/19 12:41:15;;;;;;;6.50;4.13;;;;;;;;;;5092781;28;20066;-63
2021/07/19 12:43:40;;;;;;;5.47;3.70;;;;;;;;;;5085140;28;20070;-63
2021/07/19 12:46:06;;;;;;;6.22;4.20;;;;;;;;;;5092419;28;20032;-63
2021/07/19 12:48:31;;;;;;;5.40;3.63;;;;;;;;;;5093166;28;20062;-63
2021/07/19 12:51:00;;;;;;;4.63;3.65;;;;;;;;;;5092920;28;20030;-62
2021/07/19 12:53:31;;;;;;;4.80;3.35;;;;;;;;;;5089727;28;20254;-63
2021/07/19 12:56:05;;;;;;;4.78;3.42;;;;;;;;;;5090879;28;20031;-62
2021/07/19 12:58:30;;;;;;;6.28;3.38;;;;;;;;;;5092845;28;20555;-62
2021/07/19 13:00:55;;;;;;;5.33;2.97;;;;;;;;;;5092526;28;20056;-63
2021/07/19 13:03:27;;;;;;;4.15;3.20;;;;;;;;;;5090264;28;20351;-62
2021/07/19 13:05:52;;;;;;;3.30;3.00;;;;;;;;;;5093012;28;20023;-64
2021/07/19 13:08:28;;;;;;;5.03;2.57;;;;;;;;;;5092180;28;20073;-64
2021/07/19 13:10:53;;;;;;;5.53;2.75;;;;;;;;;;5092787;28;20051;-63
2021/07/19 13:13:22;;;;;;;5.07;2.80;;;;;;;;;;5089313;28;20522;-62
2021/07/19 13:15:57;;;;;;;3.97;2.67;;;;;;;;;;5092612;28;20264;-63
2021/07/19 13:18:22;;;;;;;4.10;2.63;;;;;;;;;;5092455;28;20020;-62
2021/07/19 13:20:47;;;;;;;3.70;2.23;;;;;;;;;;5092411;28;20023;-63
2021/07/19 13:23:17;;;;;;;4.78;2.25;;;;;;;;;;5089809;28;20024;-62
2021/07/19 13:25:43;;;;;;;4.63;2.30;;;;;;;;;;5091199;28;20028;-63
2021/07/19 13:28:08;;;;;;;3.13;1.95;;;;;;;;;;5091073;28;20035;-63
2021/07/19 13:30:33;;;;;;;4.35;1.75;;;;;;;;;;5090966;28;20020;-63
2021/07/19 13:33:02;;;;;;;6.13;2.10;;;;;;;;;;5091384;28;20471;-63
2021/07/19 13:35:38;;;;;;;4.32;1.88;;;;;;;;;;5088524;28;20111;-62
2021/07/19 13:38:03;;;;;;;3.38;1.60;;;;;;;;;;5071020;28;20025;-63
2021/07/19 13:40:28;;;;;;;4.78;1.90;;;;;;;;;;5087880;28;20597;-63
2021/07/19 13:43:02;;;;;;;2.97;1.93;;;;;;;;;;5084693;28;20032;-63
2021/07/19 13:45:28;;;;;;;3.45;1.50;;;;;;;;;;5087512;28;20049;-63
2021/07/19 13:47:53;;;;;;;4.13;1.80;;;;;;;;;;5088690;28;20016;-64
2021/07/19 13:50:22;;;;;;;3.70;1.48;;;;;;;;;;5085028;28;20410;-63
2021/07/19 13:52:51;;;;;;;2.45;1.23;;;;;;;;;;5078933;28;20045;-63
2021/07/19 13:55:17;;;;;;;3.00;1.15;;;;;;;;;;5080150;28;20479;-63
2021/07/19 13:57:42;;;;;;;3.50;1.48;;;;;;;;;;5087656;28;20030;-63
2021/07/19 14:00:08;;;;;;;4.93;1.88;;;;;;;;;;5089861;28;20099;-63
2021/07/19 14:02:33;;;;;;;3.90;1.27;;;;;;;;;;5087575;28;20024;-63
2021/07/19 14:04:58;;;;;;;3.20;1.40;;;;;;;;;;5087792;28;20017;-62
2021/07/19 14:07:24;;;;;;;3.78;1.70;;;;;;;;;;5088570;28;20078;-63
2021/07/19 14:09:49;;;;;;;3.40;1.85;;;;;;;;;;5095935;28;20475;-61
2021/07/19 14:12:14;;;;;;;6.32;1.65;;;;;;;;;;5094427;28;20217;-63
2021/07/19 14:14:40;;;;;;;4.37;1.63;;;;;;;;;;5093272;28;20476;-64
2021/07/19 14:17:06;;;;;;;3.78;1.45;;;;;;;;;;5095617;28;20258;-64
2021/07/19 14:19:31;;;;;;;4.53;2.10;;;;;;;;;;5096013;28;20095;-64
2021/07/19 14:21:56;;;;;;;4.70;1.70;;;;;;;;;;5095100;28;20047;-64
2021/07/19 14:24:23;;;;;;;5.87;1.63;;;;;;;;;;5092221;28;20377;-66
2021/07/19 14:26:48;;;;;;;6.70;2.45;;;;;;;;;;5095604;28;20274;-64
2021/07/19 14:29:14;;;;;;;2.92;1.50;;;;;;;;;;5094685;28;20074;-65
2021/07/19 14:31:39;;;;;;;4.70;1.27;;;;;;;;;;5095670;28;20028;-65
2021/07/19 14:34:04;;;;;;;4.97;1.37;;;;;;;;;;5092673;28;20386;-64
2021/07/19 14:36:29;;;;;;;3.63;1.23;;;;;;;;;;5095943;28;20045;-64